Time;durP1;ratioP1;P1;durP2;ratioP2;P2;SDS_P1;SDS_P2;PMS_P1;PMS_P2;Temp;Humidity;BMP_temperature;BMP_pressure;BME280_temperature;BME280_humidity;BME280_pressure;Samples;Min_cycle;Max_cycle;Signal;HPM_P1;HPM_P2
2022/06/01 00:02:20;;;;;;;;;;;;;;;18.20;66.90;100736.70;1673527;85;20266;-62
2022/06/01 00:05:24;;;;;;;;;;;;;;;18.15;66.96;100738.73;1673629;85;20547;-61
2022/06/01 00:08:30;;;;;;;;;;;;;;;18.10;67.00;100734.37;1674470;85;20588;-60
2022/06/01 00:11:36;;;;;;;;;;;;;;;18.05;67.07;100738.31;1672690;84;20207;-61
2022/06/01 00:14:41;;;;;;;;;;;;;;;18.01;67.18;100743.13;1646201;86;20237;-62
2022/06/01 00:17:48;;;;;;;;;;;;;;;17.97;67.26;100737.16;1669158;86;20299;-61
2022/06/01 00:20:54;;;;;;;;;;;;;;;17.92;67.35;100739.71;1673217;86;20192;-62
2022/06/01 00:23:58;;;;;;;;;;;;;;;17.88;67.46;100732.91;1672883;85;20207;-61
2022/06/01 00:27:04;;;;;;;;;;;;;;;17.86;67.53;100741.96;1687374;81;20214;-60
2022/06/01 00:30:11;;;;;;;;;;;;;;;17.81;67.56;100743.13;1692415;85;20279;-63
2022/06/01 00:33:15;;;;;;;;;;;;;;;17.77;67.63;100732.17;1692506;85;20245;-62
2022/06/01 00:36:19;;;;;;;;;;;;;;;17.75;67.67;100721.84;1692397;85;20222;-60
2022/06/01 00:39:25;;;;;;;;;;;;;;;17.70;67.73;100725.77;1692461;85;20563;-62
2022/06/01 00:42:32;;;;;;;;;;;;;;;17.67;67.80;100728.97;1692485;85;20535;-62
2022/06/01 00:45:37;;;;;;;;;;;;;;;17.62;67.89;100725.46;1692837;85;20555;-62
2022/06/01 00:48:40;;;;;;;;;;;;;;;17.59;67.96;100720.36;1692910;85;20542;-62
2022/06/01 00:51:44;;;;;;;;;;;;;;;17.58;68.10;100720.57;1707724;83;20203;-64
2022/06/01 00:54:51;;;;;;;;;;;;;;;17.58;68.17;100720.02;1685295;85;20226;-62
2022/06/01 00:57:58;;;;;;;;;;;;;;;17.58;68.24;100717.80;1685324;85;20211;-59
2022/06/01 01:01:05;;;;;;;;;;;;;;;17.58;68.35;100716.42;1685473;85;20230;-62
2022/06/01 01:04:11;;;;;;;;;;;;;;;17.56;68.37;100718.02;1685473;85;20523;-62
2022/06/01 01:07:16;;;;;;;;;;;;;;;17.53;68.46;100721.22;1685396;85;20254;-60
2022/06/01 01:10:22;;;;;;;;;;;;;;;17.52;68.53;100720.04;1685396;85;20226;-61
2022/06/01 01:13:28;;;;;;;;;;;;;;;17.50;68.64;100730.47;1684798;85;20199;-60
2022/06/01 01:16:34;;;;;;;;;;;;;;;17.51;68.75;100730.78;1685506;85;20246;-64
2022/06/01 01:19:48;;;;;;;;;;;;;;;17.51;68.80;100730.25;1685424;85;20223;-63
2022/06/01 01:23:02;;;;;;;;;;;;;;;17.50;68.85;100737.39;1685132;84;20570;-61
2022/06/01 01:26:06;;;;;;;;;;;;;;;17.45;68.90;100733.88;1685512;85;20222;-61
2022/06/01 01:29:15;;;;;;;;;;;;;;;17.43;69.01;100740.63;1681683;85;20235;-59
2022/06/01 01:32:21;;;;;;;;;;;;;;;17.40;69.08;100743.83;1681973;84;20511;-62
2022/06/01 01:35:27;;;;;;;;;;;;;;;17.34;69.14;100746.92;1682043;85;20231;-61
2022/06/01 01:38:35;;;;;;;;;;;;;;;17.32;69.23;100747.66;1666478;85;20199;-61
2022/06/01 01:41:46;;;;;;;;;;;;;;;17.27;69.28;100744.66;1662679;86;20201;-62
2022/06/01 01:45:12;;;;;;;;;;;;;;;17.24;69.36;100750.62;1666372;86;20211;-65
2022/06/01 01:48:18;;;;;;;;;;;;;;;17.22;69.44;100747.20;1669329;84;20221;-60
2022/06/01 01:51:29;;;;;;;;;;;;;;;17.18;69.48;100741.78;1668393;84;20603;-62
2022/06/01 01:54:43;;;;;;;;;;;;;;;17.17;69.53;100744.77;1672132;84;20183;-60
2022/06/01 01:58:11;;;;;;;;;;;;;;;17.13;69.58;100737.41;1671552;84;20563;-61
2022/06/01 02:01:18;;;;;;;;;;;;;;;17.12;69.63;100741.77;1675323;85;20545;-63
2022/06/01 02:08:13;;;;;;;;;;;;;;;17.08;69.82;100741.33;1664280;86;20211;-61
2022/06/01 02:14:55;;;;;;;;;;;;;;;17.12;70.02;100747.30;1663088;86;20571;-61
2022/06/01 02:18:03;;;;;;;;;;;;;;;17.13;70.07;100745.70;1662766;86;20251;-62
2022/06/01 02:21:09;;;;;;;;;;;;;;;17.14;70.15;100736.88;1668012;86;20467;-62
2022/06/01 02:24:14;;;;;;;;;;;;;;;17.15;70.21;100742.73;1664867;86;20678;-63
2022/06/01 02:27:19;;;;;;;;;;;;;;;17.19;70.29;100743.48;1665096;86;20207;-63
2022/06/01 02:30:35;;;;;;;;;;;;;;;17.22;70.34;100744.99;1689803;85;20210;-62
2022/06/01 02:33:41;;;;;;;;;;;;;;;17.28;70.43;100756.59;1690380;85;20202;-61
2022/06/01 02:36:46;;;;;;;;;;;;;;;17.34;70.49;100752.98;1677943;85;20329;-62
2022/06/01 02:39:55;;;;;;;;;;;;;;;17.39;70.49;100750.44;1679130;85;20207;-62
2022/06/01 02:42:59;;;;;;;;;;;;;;;17.42;70.48;100743.09;1676607;85;20585;-63
2022/06/01 02:46:05;;;;;;;;;;;;;;;17.43;70.50;100749.80;1677279;85;20206;-62
2022/06/01 02:49:11;;;;;;;;;;;;;;;17.44;70.53;100750.14;1676786;85;20568;-62
2022/06/01 02:52:17;;;;;;;;;;;;;;;17.47;70.55;100748.89;1674703;85;20545;-63
2022/06/01 02:55:23;;;;;;;;;;;;;;;17.50;70.66;100749.84;1676914;85;20223;-61
2022/06/01 02:58:27;;;;;;;;;;;;;;;17.55;70.72;100759.76;1680636;85;20211;-63
2022/06/01 03:01:32;;;;;;;;;;;;;;;17.57;70.72;100760.38;1669882;85;20243;-61
2022/06/01 03:04:37;;;;;;;;;;;;;;;17.61;70.75;100761.67;1676881;85;20195;-62
2022/06/01 03:07:42;;;;;;;;;;;;;;;17.65;70.81;100766.56;1626942;88;20183;-63
2022/06/01 03:10:48;;;;;;;;;;;;;;;17.70;70.87;100772.84;1653855;86;20193;-63
2022/06/01 03:13:54;;;;;;;;;;;;;;;17.75;70.92;100772.55;1676134;85;20199;-62
2022/06/01 03:16:58;;;;;;;;;;;;;;;17.82;70.98;100769.22;1683412;85;20230;-62
2022/06/01 03:20:08;;;;;;;;;;;;;;;17.90;71.01;100766.80;1677202;85;20219;-62
2022/06/01 03:23:10;;;;;;;;;;;;;;;17.95;71.07;100771.14;1677805;85;20203;-61
2022/06/01 03:26:15;;;;;;;;;;;;;;;18.02;71.10;100783.08;1681578;85;20566;-63
2022/06/01 03:29:24;;;;;;;;;;;;;;;18.05;71.12;100777.62;1671285;84;20520;-61
2022/06/01 03:32:29;;;;;;;;;;;;;;;18.10;71.17;100782.86;1630224;87;20234;-61
2022/06/01 03:35:37;;;;;;;;;;;;;;;18.16;71.18;100777.84;1630634;87;20607;-59
2022/06/01 03:38:41;;;;;;;;;;;;;;;18.18;71.22;100776.23;1629734;87;20256;-61
2022/06/01 03:41:46;;;;;;;;;;;;;;;18.23;71.31;100777.83;1650227;86;20221;-61
2022/06/01 03:48:15;;;;;;;;;;;;;;;18.39;71.46;100770.48;1630716;88;20230;-60
2022/06/01 03:51:21;;;;;;;;;;;;;;;18.48;71.47;100773.33;1630908;86;20223;-62
2022/06/01 03:54:26;;;;;;;;;;;;;;;18.54;71.51;100775.22;1626815;87;20223;-62
2022/06/01 03:57:30;;;;;;;;;;;;;;;18.57;71.51;100772.87;1631676;87;20324;-62
2022/06/01 04:00:35;;;;;;;;;;;;;;;18.56;71.52;100778.11;1631305;87;20591;-60
2022/06/01 04:03:40;;;;;;;;;;;;;;;18.61;71.64;100772.77;1639779;86;20215;-59
2022/06/01 04:06:45;;;;;;;;;;;;;;;18.67;71.71;100781.59;1630985;87;20643;-61
2022/06/01 04:09:51;;;;;;;;;;;;;;;18.71;71.68;100781.46;1630427;87;20290;-60
2022/06/01 04:12:58;;;;;;;;;;;;;;;18.77;71.72;100780.61;1627379;87;20696;-61
2022/06/01 04:16:04;;;;;;;;;;;;;;;18.78;71.62;100789.23;1631005;87;20547;-61
2022/06/01 04:19:11;;;;;;;;;;;;;;;18.78;71.67;100782.30;1619936;87;20230;-60
2022/06/01 04:22:17;;;;;;;;;;;;;;;18.84;71.77;100787.49;1628392;87;20555;-60
2022/06/01 04:25:24;;;;;;;;;;;;;;;18.90;71.76;100788.85;1631082;87;20543;-60
2022/06/01 04:28:30;;;;;;;;;;;;;;;18.92;71.76;100793.66;1630810;87;20556;-61
2022/06/01 04:31:33;;;;;;;;;;;;;;;18.97;71.78;100799.92;1631970;85;20654;-60
2022/06/01 04:34:40;;;;;;;;;;;;;;;19.01;71.82;100802.03;1630774;87;20223;-59
2022/06/01 04:37:45;;;;;;;;;;;;;;;19.05;71.88;100799.16;1632425;87;20547;-60
2022/06/01 04:40:53;;;;;;;;;;;;;;;19.11;71.92;100802.95;1668030;85;20215;-62
2022/06/01 04:43:59;;;;;;;;;;;;;;;19.17;71.96;100809.86;1666462;84;20199;-62
2022/06/01 04:47:06;;;;;;;;;;;;;;;19.27;72.06;100800.53;1671634;85;20195;-61
2022/06/01 04:50:14;;;;;;;;;;;;;;;19.41;72.07;100801.88;1671624;85;20246;-59
2022/06/01 04:53:21;;;;;;;;;;;;;;;19.49;72.03;100808.56;1675579;85;20575;-59
2022/06/01 04:56:25;;;;;;;;;;;;;;;19.53;72.08;100806.50;1676129;85;20219;-61
2022/06/01 04:59:32;;;;;;;;;;;;;;;19.59;72.06;100808.91;1674504;85;20223;-63
2022/06/01 05:02:40;;;;;;;;;;;;;;;19.63;72.05;100802.67;1674447;84;20247;-61
2022/06/01 05:05:46;;;;;;;;;;;;;;;19.72;72.12;100801.88;1652110;85;20250;-59
2022/06/01 05:08:51;;;;;;;;;;;;;;;19.78;72.12;100803.75;1670283;85;20270;-57
2022/06/01 05:12:02;;;;;;;;;;;;;;;19.89;72.21;100805.80;1669881;85;20251;-58
2022/06/01 05:15:15;;;;;;;;;;;;;;;19.95;72.21;100802.97;1688685;83;20259;-60
2022/06/01 05:18:26;;;;;;;;;;;;;;;20.05;72.28;100798.28;1675506;85;20231;-58
2022/06/01 05:21:30;;;;;;;;;;;;;;;20.19;72.31;100797.12;1673249;85;20222;-63
2022/06/01 05:24:34;;;;;;;;;;;;;;;20.25;72.25;100791.50;1660329;86;20223;-61
2022/06/01 05:27:41;;;;;;;;;;;;;;;20.33;72.23;100800.08;1672720;85;20222;-61
2022/06/01 05:30:49;;;;;;;;;;;;;;;20.37;72.24;100793.86;1671861;84;20783;-60
2022/06/01 05:33:56;;;;;;;;;;;;;;;20.47;72.26;100794.16;1640379;86;20415;-63
2022/06/01 05:37:02;;;;;;;;;;;;;;;20.57;72.29;100791.70;1640374;87;20213;-62
2022/06/01 05:40:07;;;;;;;;;;;;;;;20.68;72.31;100791.47;1643056;87;20625;-59
2022/06/01 05:43:17;;;;;;;;;;;;;;;20.80;72.29;100782.11;1643908;87;20217;-58
2022/06/01 05:46:23;;;;;;;;;;;;;;;20.87;72.23;100780.64;1626189;87;20233;-59
2022/06/01 05:49:31;;;;;;;;;;;;;;;20.98;72.30;100779.89;1641657;87;20266;-60
2022/06/01 05:52:38;;;;;;;;;;;;;;;21.09;72.26;100781.88;1642531;87;20260;-61
2022/06/01 05:55:43;;;;;;;;;;;;;;;21.16;72.19;100778.48;1638942;86;20622;-59
2022/06/01 05:58:50;;;;;;;;;;;;;;;21.23;72.12;100780.61;1644681;87;20265;-62
2022/06/01 06:01:55;;;;;;;;;;;;;;;21.31;72.10;100777.50;1640768;87;20249;-61
2022/06/01 06:05:01;;;;;;;;;;;;;;;21.39;72.06;100775.77;1642389;85;20224;-59
2022/06/01 06:08:06;;;;;;;;;;;;;;;21.49;72.13;100773.28;1642662;87;20232;-59
2022/06/01 06:11:11;;;;;;;;;;;;;;;21.62;72.16;100775.01;1644961;85;20227;-61
2022/06/01 06:14:16;;;;;;;;;;;;;;;21.70;72.10;100771.34;1635540;87;20629;-60
2022/06/01 06:17:24;;;;;;;;;;;;;;;21.78;72.04;100768.25;1636254;87;20605;-61
2022/06/01 06:20:29;;;;;;;;;;;;;;;21.86;72.11;100772.09;1624757;87;20236;-59
2022/06/01 06:23:37;;;;;;;;;;;;;;;21.94;72.06;100766.70;1634008;87;20216;-58
2022/06/01 06:26:44;;;;;;;;;;;;;;;22.03;71.98;100765.24;1618010;86;20215;-59
2022/06/01 06:29:48;;;;;;;;;;;;;;;22.10;71.96;100763.20;1633631;86;20538;-62
2022/06/01 06:32:55;;;;;;;;;;;;;;;22.19;71.88;100761.20;1626626;83;20605;-61
2022/06/01 06:36:12;;;;;;;;;;;;;;;22.28;71.82;100758.87;1653997;86;20265;-59
2022/06/01 06:39:18;;;;;;;;;;;;;;;22.41;71.80;100759.17;1671176;86;20222;-61
2022/06/01 06:42:23;;;;;;;;;;;;;;;22.50;71.70;100756.34;1672357;85;20219;-60
2022/06/01 06:45:29;;;;;;;;;;;;;;;22.56;71.66;100754.84;1672604;84;20614;-62
2022/06/01 06:48:35;;;;;;;;;;;;;;;22.64;71.58;100755.87;1672931;85;20515;-60
2022/06/01 06:51:40;;;;;;;;;;;;;;;22.71;71.53;100758.50;1666995;86;20238;-62
2022/06/01 06:54:45;;;;;;;;;;;;;;;22.80;71.42;100762.63;1670539;84;20992;-61
2022/06/01 06:57:52;;;;;;;;;;;;;;;22.90;71.31;100750.26;1686337;83;20224;-62
2022/06/01 07:00:58;;;;;;;;;;;;;;;22.98;71.17;100743.75;1674260;84;20235;-63
2022/06/01 07:04:05;;;;;;;;;;;;;;;23.06;71.10;100749.48;1680525;84;20213;-64
2022/06/01 07:07:12;;;;;;;;;;;;;;;23.16;71.10;100752.48;1673539;84;20255;-62
2022/06/01 07:10:17;;;;;;;;;;;;;;;23.29;71.10;100743.85;1669614;84;20214;-61
2022/06/01 07:13:28;;;;;;;;;;;;;;;23.42;71.01;100753.33;1676193;83;20219;-56
2022/06/01 07:16:37;;;;;;;;;;;;;;;23.48;70.81;100756.52;1659355;84;20255;-58
2022/06/01 07:19:42;;;;;;;;;;;;;;;23.53;70.68;100753.25;1672545;83;20207;-58
2022/06/01 07:22:48;;;;;;;;;;;;;;;23.64;70.67;100754.30;1671497;85;20231;-56
2022/06/01 07:25:54;;;;;;;;;;;;;;;23.74;70.57;100757.83;1671364;85;20654;-57
2022/06/01 07:28:59;;;;;;;;;;;;;;;23.79;70.38;100748.97;1670200;85;20215;-58
2022/06/01 07:32:02;;;;;;;;;;;;;;;23.83;70.23;100751.57;1670456;84;20921;-59
2022/06/01 07:35:09;;;;;;;;;;;;;;;23.94;70.22;100748.38;1673556;84;20297;-58
2022/06/01 07:45:17;;;;;;;;;;;;;;;24.22;69.81;100750.56;1645320;87;20269;-57
2022/06/01 07:48:22;;;;;;;;;;;;;;;24.31;69.66;100750.42;1668272;85;20207;-62
2022/06/01 07:51:29;;;;;;;;;;;;;;;24.34;69.41;100745.70;1672926;82;20242;-64
2022/06/01 07:54:37;;;;;;;;;;;;;;;24.37;69.38;100756.38;1669977;86;20220;-64
2022/06/01 07:57:41;;;;;;;;;;;;;;;24.43;69.28;100751.18;1673615;84;20227;-61
2022/06/01 08:00:48;;;;;;;;;;;;;;;24.49;69.25;100752.94;1673237;85;20250;-63
2022/06/01 08:03:58;;;;;;;;;;;;;;;24.56;69.08;100753.59;1673368;84;20222;-62
2022/06/01 08:07:04;;;;;;;;;;;;;;;24.60;69.04;100751.98;1657108;84;20627;-63
2022/06/01 08:10:11;;;;;;;;;;;;;;;24.69;68.99;100750.99;1673840;84;20254;-63
2022/06/01 08:13:20;;;;;;;;;;;;;;;24.75;68.96;100747.18;1671695;84;20230;-63
2022/06/01 08:16:24;;;;;;;;;;;;;;;24.85;68.90;100745.35;1663423;84;20251;-62
2022/06/01 08:19:34;;;;;;;;;;;;;;;24.94;68.79;100742.37;1680808;83;20228;-63
2022/06/01 08:23:05;;;;;;;;;;;;;;;25.02;68.56;100736.31;1682319;84;20894;-64
2022/06/01 08:26:10;;;;;;;;;;;;;;;25.03;68.42;100739.42;1698660;83;20503;-62
2022/06/01 08:29:15;;;;;;;;;;;;;;;25.14;68.33;100739.53;1700206;84;20205;-62
2022/06/01 08:32:20;;;;;;;;;;;;;;;25.22;68.13;100744.67;1646998;86;20554;-63
2022/06/01 08:35:28;;;;;;;;;;;;;;;25.29;68.05;100741.13;1682532;82;20550;-62
2022/06/01 08:38:35;;;;;;;;;;;;;;;25.38;67.82;100743.77;1683278;84;20602;-62
2022/06/01 08:41:42;;;;;;;;;;;;;;;25.40;67.55;100737.34;1679848;85;20218;-63
2022/06/01 08:44:50;;;;;;;;;;;;;;;25.45;67.52;100737.41;1677249;85;20630;-62
2022/06/01 08:47:57;;;;;;;;;;;;;;;25.57;67.54;100741.74;1670296;85;20625;-62
2022/06/01 08:51:01;;;;;;;;;;;;;;;25.68;67.47;100734.26;1679690;84;20549;-62
2022/06/01 08:54:06;;;;;;;;;;;;;;;25.78;67.39;100730.16;1677206;85;20614;-60
2022/06/01 08:57:24;;;;;;;;;;;;;;;25.89;67.36;100727.18;1661246;84;20226;-62
2022/06/01 09:00:35;;;;;;;;;;;;;;;25.98;67.23;100733.13;1674405;83;20507;-60
2022/06/01 09:04:12;;;;;;;;;;;;;;;26.00;66.89;100723.92;1673277;83;20237;-59
2022/06/01 09:07:34;;;;;;;;;;;;;;;25.98;66.78;100728.37;1675446;84;20467;-62
2022/06/01 09:10:48;;;;;;;;;;;;;;;25.99;66.60;100728.65;1674133;84;20246;-61
2022/06/01 09:14:14;;;;;;;;;;;;;;;26.08;66.59;100724.83;1697407;84;20216;-60
2022/06/01 09:17:19;;;;;;;;;;;;;;;26.14;66.39;100725.16;1688014;83;20591;-61
2022/06/01 09:23:50;;;;;;;;;;;;;;;26.44;66.24;100721.14;1657409;84;20272;-62
2022/06/01 09:27:02;;;;;;;;;;;;;;;26.61;66.09;100719.57;1676535;84;20275;-62
2022/06/01 09:30:08;;;;;;;;;;;;;;;26.72;65.89;100717.95;1673564;85;20211;-63
2022/06/01 09:33:35;;;;;;;;;;;;;;;26.85;65.77;100714.66;1672373;85;20238;-61
2022/06/01 09:36:42;;;;;;;;;;;;;;;26.95;65.60;100709.08;1675389;82;20250;-61
2022/06/01 09:39:57;;;;;;;;;;;;;;;26.90;65.31;100703.44;1672721;84;20630;-62
2022/06/01 09:43:05;;;;;;;;;;;;;;;26.95;65.30;100704.02;1689118;84;20255;-62
2022/06/01 09:46:14;;;;;;;;;;;;;;;27.09;65.28;100704.63;1669486;86;20251;-62
2022/06/01 09:49:42;;;;;;;;;;;;;;;27.22;65.21;100701.30;1629906;86;20209;-62
2022/06/01 09:52:48;;;;;;;;;;;;;;;27.26;64.84;100695.94;1668367;85;20258;-63
2022/06/01 09:56:00;;;;;;;;;;;;;;;27.29;64.66;100694.05;1649900;85;20221;-62
2022/06/01 10:06:09;;;;;;;;;;;;;;;27.34;64.24;100692.06;1682871;84;20212;-61
2022/06/01 10:09:18;;;;;;;;;;;;;;;27.43;64.24;100693.78;1670728;85;20443;-59
2022/06/01 10:12:28;;;;;;;;;;;;;;;27.54;64.16;100698.30;1672362;85;20502;-60
2022/06/01 10:15:51;;;;;;;;;;;;;;;27.65;64.18;100696.59;1658099;84;20231;-60
2022/06/01 10:18:57;;;;;;;;;;;;;;;27.80;64.16;100694.36;1662510;85;20288;-61
2022/06/01 10:22:06;;;;;;;;;;;;;;;27.99;64.08;100692.70;1638371;85;20564;-62
2022/06/01 10:25:19;;;;;;;;;;;;;;;28.17;63.92;100694.09;1671354;85;20218;-59
2022/06/01 10:28:28;;;;;;;;;;;;;;;28.23;63.60;100690.12;1672572;84;20269;-59
2022/06/01 10:31:43;;;;;;;;;;;;;;;28.19;63.42;100696.06;1676472;84;20218;-61
2022/06/01 10:35:02;;;;;;;;;;;;;;;28.31;63.40;100686.73;1679544;84;20218;-60
2022/06/01 10:38:33;;;;;;;;;;;;;;;28.32;63.21;100682.81;1664795;83;20222;-58
2022/06/01 10:41:42;;;;;;;;;;;;;;;28.37;63.11;100687.84;1684010;85;20669;-60
2022/06/01 10:44:50;;;;;;;;;;;;;;;28.45;63.13;100678.81;1682502;85;20249;-59
2022/06/01 10:48:01;;;;;;;;;;;;;;;28.63;63.00;100681.61;1670329;83;20248;-60
2022/06/01 10:51:11;;;;;;;;;;;;;;;28.76;62.73;100681.00;1676762;84;20498;-59
2022/06/01 10:54:20;;;;;;;;;;;;;;;28.93;62.56;100678.66;1659309;85;20249;-60
2022/06/01 10:57:27;;;;;;;;;;;;;;;28.92;62.19;100675.58;1670749;83;20223;-59
2022/06/01 11:00:57;;;;;;;;;;;;;;;28.98;62.18;100674.42;1646781;87;20254;-61
2022/06/01 11:04:11;;;;;;;;;;;;;;;29.09;62.15;100677.48;1641664;87;20575;-60
2022/06/01 11:07:53;;;;;;;;;;;;;;;29.18;61.91;100670.09;1651175;85;20253;-61
2022/06/01 11:11:08;;;;;;;;;;;;;;;29.20;61.70;100673.47;1681379;85;20218;-60
2022/06/01 11:14:31;;;;;;;;;;;;;;;29.24;61.58;100667.52;1659853;83;20218;-60
2022/06/01 11:18:01;;;;;;;;;;;;;;;29.34;61.52;100672.24;1681817;85;20225;-60
2022/06/01 11:21:34;;;;;;;;;;;;;;;29.40;61.23;100676.74;1681267;83;20320;-61
2022/06/01 11:25:11;;;;;;;;;;;;;;;29.45;61.01;100681.77;1679643;85;20245;-60
2022/06/01 11:28:37;;;;;;;;;;;;;;;29.49;60.92;100679.21;1682356;84;20206;-61
2022/06/01 11:31:44;;;;;;;;;;;;;;;29.65;60.82;100673.20;1679919;83;20230;-61
2022/06/01 11:35:11;;;;;;;;;;;;;;;29.68;60.46;100677.41;1676140;85;20911;-61
2022/06/01 11:38:36;;;;;;;;;;;;;;;29.45;60.08;100683.17;1676614;83;20226;-61
2022/06/01 11:41:42;;;;;;;;;;;;;;;29.46;60.18;100680.66;1643673;86;20225;-61
2022/06/01 11:44:49;;;;;;;;;;;;;;;29.56;60.15;100689.02;1640637;86;20221;-62
2022/06/01 11:48:00;;;;;;;;;;;;;;;29.65;60.16;100691.55;1671619;86;20583;-62
2022/06/01 11:51:23;;;;;;;;;;;;;;;29.81;60.08;100688.84;1668460;86;20223;-63
2022/06/01 11:54:40;;;;;;;;;;;;;;;30.00;59.91;100690.41;1646754;86;20229;-62
2022/06/01 11:58:05;;;;;;;;;;;;;;;30.21;59.70;100691.34;1671472;85;20222;-60
2022/06/01 12:01:21;;;;;;;;;;;;;;;30.31;59.22;100688.42;1671525;83;20271;-61
2022/06/01 12:04:41;;;;;;;;;;;;;;;30.31;58.82;100676.27;1669528;85;20218;-62
2022/06/01 12:07:58;;;;;;;;;;;;;;;30.35;58.76;100679.61;1666997;84;20229;-61
2022/06/01 12:11:04;;;;;;;;;;;;;;;30.36;58.43;100675.66;1663689;84;20215;-62
2022/06/01 12:14:12;;;;;;;;;;;;;;;30.29;58.19;100681.37;1668650;84;20523;-62
2022/06/01 12:17:27;;;;;;;;;;;;;;;30.25;58.01;100683.98;1673976;84;20339;-61
2022/06/01 12:20:43;;;;;;;;;;;;;;;30.21;57.89;100677.78;1615381;88;20221;-65
2022/06/01 12:31:01;;;;;;;;;;;;;;;30.50;57.45;100673.80;1678563;83;20276;-64
2022/06/01 12:34:16;;;;;;;;;;;;;;;30.53;57.10;100669.52;1669673;84;20555;-65
2022/06/01 12:37:16;;;;;;;;;;;;;;;30.49;56.88;100670.69;1669623;85;20206;-61
2022/06/01 12:40:24;;;;;;;;;;;;;;;30.48;56.73;100667.60;1670986;83;20221;-60
2022/06/01 12:43:30;;;;;;;;;;;;;;;30.50;56.56;100658.26;1666599;85;20662;-57
2022/06/01 12:46:43;;;;;;;;;;;;;;;30.48;56.36;100652.06;1688338;84;20565;-58
2022/06/01 12:49:48;;;;;;;;;;;;;;;30.53;56.33;100656.80;1668185;85;20214;-60
2022/06/01 12:52:55;;;;;;;;;;;;;;;30.61;56.30;100656.14;1679411;83;20559;-59
2022/06/01 12:56:18;;;;;;;;;;;;;;;30.59;55.96;100656.45;1673737;84;20219;-63
2022/06/01 12:59:27;;;;;;;;;;;;;;;30.49;55.56;100651.50;1671072;83;20219;-59
2022/06/01 13:02:30;;;;;;;;;;;;;;;30.35;55.44;100647.12;1645962;85;20395;-58
2022/06/01 13:05:52;;;;;;;;;;;;;;;30.31;55.44;100649.43;1607759;86;20672;-57
2022/06/01 13:08:51;;;;;;;;;;;;;;;30.30;55.39;100649.99;1683900;83;20207;-53
2022/06/01 13:12:10;;;;;;;;;;;;;;;30.37;55.36;100646.25;1677616;83;20220;-59
2022/06/01 13:15:28;;;;;;;;;;;;;;;30.44;55.16;100645.34;1673829;85;20214;-60
2022/06/01 13:18:40;;;;;;;;;;;;;;;30.44;55.01;100636.86;1673968;85;20511;-58
2022/06/01 13:21:46;;;;;;;;;;;;;;;30.49;55.07;100633.13;1674069;85;20539;-57
2022/06/01 13:24:57;;;;;;;;;;;;;;;30.54;55.00;100626.00;1664489;84;20230;-53
2022/06/01 13:28:01;;;;;;;;;;;;;;;30.56;54.93;100635.00;1640783;86;20261;-50
2022/06/01 13:31:07;;;;;;;;;;;;;;;30.47;54.67;100626.92;1646443;86;20225;-53
2022/06/01 13:34:14;;;;;;;;;;;;;;;30.29;54.49;100622.89;1646387;87;20224;-54
2022/06/01 13:37:32;;;;;;;;;;;;;;;30.26;54.43;100617.84;1653319;86;20254;-53
2022/06/01 13:41:33;;;;;;;;;;;;;;;30.28;54.29;100617.55;1663353;84;20287;-54
2022/06/01 13:45:00;;;;;;;;;;;;;;;30.26;54.17;100606.55;1658370;84;20253;-54
2022/06/01 13:48:10;;;;;;;;;;;;;;;30.26;54.19;100610.78;1684376;85;20618;-53
2022/06/01 13:51:22;;;;;;;;;;;;;;;30.32;54.22;100601.09;1689210;85;20217;-54
2022/06/01 13:54:37;;;;;;;;;;;;;;;30.43;54.21;100600.39;1681183;85;20493;-54
2022/06/01 13:57:55;;;;;;;;;;;;;;;30.41;54.03;100599.87;1690904;84;20218;-55
2022/06/01 14:01:14;;;;;;;;;;;;;;;30.42;53.90;100595.33;1683578;83;20270;-54
2022/06/01 14:04:54;;;;;;;;;;;;;;;30.56;53.84;100587.80;1670980;83;20528;-56
2022/06/01 14:08:06;;;;;;;;;;;;;;;30.71;53.69;100587.32;1687169;84;20497;-54
2022/06/01 14:11:13;;;;;;;;;;;;;;;30.78;53.40;100587.24;1661950;86;20243;-54
2022/06/01 14:14:22;;;;;;;;;;;;;;;30.70;53.14;100585.05;1677662;85;20222;-54
2022/06/01 14:17:30;;;;;;;;;;;;;;;30.68;53.11;100581.72;1670920;85;20218;-54
2022/06/01 14:20:35;;;;;;;;;;;;;;;30.72;52.87;100580.51;1689011;84;20478;-55
2022/06/01 14:23:43;;;;;;;;;;;;;;;30.62;52.61;100575.28;1681423;85;20582;-54
2022/06/01 14:30:11;;;;;;;;;;;;;;;30.60;52.62;100567.66;1689964;84;20254;-53
2022/06/01 14:33:18;;;;;;;;;;;;;;;30.68;52.60;100559.66;1696667;83;20254;-53
2022/06/01 14:36:23;;;;;;;;;;;;;;;30.74;52.46;100560.70;1698506;83;20250;-55
2022/06/01 14:39:28;;;;;;;;;;;;;;;30.74;52.28;100566.92;1684004;83;20598;-56
2022/06/01 14:42:35;;;;;;;;;;;;;;;30.68;52.11;100563.34;1675178;81;20253;-53
2022/06/01 14:45:39;;;;;;;;;;;;;;;30.64;52.01;100555.19;1673168;85;20214;-54
2022/06/01 14:48:43;;;;;;;;;;;;;;;30.59;51.83;100558.92;1679330;85;20575;-54
2022/06/01 14:51:53;;;;;;;;;;;;;;;30.61;51.77;100562.30;1684708;83;20218;-54
2022/06/01 14:55:00;;;;;;;;;;;;;;;30.74;51.70;100575.41;1671337;85;20226;-54
2022/06/01 14:58:05;;;;;;;;;;;;;;;30.95;51.48;100574.01;1683154;83;20230;-55
2022/06/01 15:01:16;;;;;;;;;;;;;;;31.18;51.35;100577.31;1682372;83;20238;-54
2022/06/01 15:04:25;;;;;;;;;;;;;;;31.37;51.09;100576.75;1676768;84;20946;-54
2022/06/01 15:07:30;;;;;;;;;;;;;;;31.35;50.90;100570.58;1679438;85;20210;-54
2022/06/01 15:10:39;;;;;;;;;;;;;;;31.28;50.75;100560.19;1674523;84;20235;-54
2022/06/01 15:13:44;;;;;;;;;;;;;;;31.26;50.65;100563.88;1658006;85;20219;-54
2022/06/01 15:16:49;;;;;;;;;;;;;;;31.11;50.42;100570.62;1676528;85;20514;-55
2022/06/01 15:19:55;;;;;;;;;;;;;;;31.03;50.53;100567.66;1671360;86;20598;-56
2022/06/01 15:23:00;;;;;;;;;;;;;;;31.02;50.56;100569.64;1672404;86;20211;-57
2022/06/01 15:26:05;;;;;;;;;;;;;;;31.03;50.54;100576.15;1672800;85;20226;-54
2022/06/01 15:39:31;;;;;;;;;;;;;;;31.30;50.07;100570.62;1678676;85;20255;-55
2022/06/01 15:42:55;;;;;;;;;;;;;;;31.29;50.06;100576.84;1684561;83;20208;-54
2022/06/01 15:46:18;;;;;;;;;;;;;;;31.30;49.92;100572.05;1684552;82;20665;-58
2022/06/01 15:49:26;;;;;;;;;;;;;;;31.23;49.89;100570.16;1680225;84;20258;-60
2022/06/01 15:52:33;;;;;;;;;;;;;;;31.16;49.90;100564.89;1670778;84;20555;-60
2022/06/01 15:55:42;;;;;;;;;;;;;;;31.02;49.79;100567.38;1705585;82;20599;-60
2022/06/01 15:58:46;;;;;;;;;;;;;;;31.03;50.03;100567.10;1682346;85;20182;-60
2022/06/01 16:01:53;;;;;;;;;;;;;;;31.45;49.85;100565.58;1681724;85;20250;-60
2022/06/01 16:05:01;;;;;;;;;;;;;;;31.86;49.22;100556.65;1679965;83;20260;-60
2022/06/01 16:08:06;;;;;;;;;;;;;;;31.91;48.74;100561.37;1651956;85;20223;-60
2022/06/01 16:11:15;;;;;;;;;;;;;;;31.81;48.66;100550.19;1636329;87;20570;-60
2022/06/01 16:14:43;;;;;;;;;;;;;;;31.74;48.83;100554.02;1676506;85;20266;-62
2022/06/01 16:18:10;;;;;;;;;;;;;;;31.56;48.98;100558.59;1869055;74;20571;-60
2022/06/01 16:21:17;;;;;;;;;;;;;;;31.31;49.13;100550.54;1793907;78;20573;-61
2022/06/01 16:24:24;;;;;;;;;;;;;;;30.99;49.26;100553.28;1795505;78;20615;-61
2022/06/01 16:27:30;;;;;;;;;;;;;;;30.63;49.38;100551.53;1819963;78;20546;-61
2022/06/01 16:30:34;;;;;;;;;;;;;;;30.27;49.55;100546.06;1815264;78;20512;-61
2022/06/01 16:33:41;;;;;;;;;;;;;;;29.91;49.63;100545.33;1818473;78;20250;-60
2022/06/01 16:36:46;;;;;;;;;;;;;;;29.60;49.77;100553.82;1817497;78;20575;-61
2022/06/01 16:39:51;;;;;;;;;;;;;;;29.30;49.97;100571.02;1800589;77;20281;-61
2022/06/01 16:42:59;;;;;;;;;;;;;;;28.98;50.03;100575.73;1760474;78;20585;-61
2022/06/01 16:46:09;;;;;;;;;;;;;;;28.70;50.17;100573.66;1793113;78;20383;-61
2022/06/01 16:49:16;;;;;;;;;;;;;;;28.46;50.27;100576.84;1816894;78;20261;-60
2022/06/01 16:52:23;;;;;;;;;;;;;;;28.22;50.39;100584.26;1813129;78;20240;-61
2022/06/01 16:55:31;;;;;;;;;;;;;;;27.98;50.50;100595.86;1811329;79;20212;-60
2022/06/01 16:58:35;;;;;;;;;;;;;;;27.75;50.63;100600.94;1812860;79;20535;-60
2022/06/01 17:01:44;;;;;;;;;;;;;;;27.56;50.70;100611.08;1812348;79;20217;-58